MUHA/HAV METAR and TAF weather

Enter ICAO airport designator
Station Type Date Time Source
MUHA METAR 2019/11/14 03:55 UTC NOAA

MUHA 140355Z 07004KT 9000 FEW030 21/21 Q1016


Station Type Date Time Source
MUHA Decoded METAR 2019/11/14 03:55 UTC NOAA

Aeropuerto Jose Marti, Rancho-Boyeros, Habana, Cuba (MUHA) 22-59N 082-24W 75M
Nov 13, 2019 - 10:55 PM EST / 2019.11.14 0355 UTC
Wind: from the ENE (070 degrees) at 5 MPH (4 KT):0
Visibility: 5 mile(s):0
Sky conditions: mostly clear
Temperature: 69 F (21 C)
Dew Point: 69 F (21 C)
Relative Humidity: 100%
Pressure (altimeter): 30.00 in. Hg (1016 hPa)
ob: MUHA 140355Z 07004KT 9000 FEW030 21/21 Q1016
cycle: 4

Station Type Date Time Source
MUHA TAF 2019/11/13 18:42 UTC NOAA

TAF COR MUHA 131700Z 1318/1418 04010KT 9000 BKN030
BECMG 1401/1403 VRB03KT FEW025
BECMG 1413/1414 09008KT

Example: see airport list